Oswaldo Cruz, Brazil
Current Conditions -  °F | °C
As of 10:00 PM on Saturday 25 Oct 2014 (Local Time) from SBCH Reporting Station
Clear Clear  
Wind Chill: 73°   Ceiling: Unl
Heat Index: 73°   Visibility: 6mi
Dew Point: 63°   Wind: 15mph
Humidity: 69%   Direction: 20°NNE
Pressure: 29.91"   Gusts: NA
Location:  27.42°S, 53.42°W
Report Text: SBCH 260000Z 02013KT CAVOK 23/17 Q1013
Loading
Personal Weather Stations






























Interactive Weather Map
Tropical Storm Tracking
New forecast layout! Learn more

10-Day Weather Forecast

Advertisements
Track Severe Weather on mobile